Forside
METAR-TAF:

METAR-TAF

Lufthavne :

Flughafen Heringsdorf

Heringsdorf, Tyskland

Breddekreds: 53-53N, længdekreds: 014-09E, højde: 28 m

Aktuelle vejr

Denne rapport blev lavet for 54 minutter siden, kl. 08:20 UTC
Vind 10 kt fra sydøst
Temperatur 9°C
Fugtighed 100%
Tryk 1007 hPa
Sigt: 1400 m
Nogle få skyer i en højde af 200 ft
Overskyet i en højde af 700 ft
let regn, dis,

METAR: EDAH 020820Z 13010KT 1400 R10/P2000N -RA BR FEW002 OVC007 09/09 Q1007

Tid: 10:14 (09:14 UTC)

Vejrudsigter

Denne rapport blev lavet for 1 time og 14 minutter siden, kl. 08:00 UTC
Foreløbig gælder fra 02 på 09 UTC til 02 på 18 UTC
Vind 10 kt fra sydøst
Sigt: 2000 m
Spredte skyer i en højde af 200 ft
Overskyet i en højde af 700 ft
dis
Midlertidig
fra 02 på 09 UTC til 02 på 11 UTC
Sigt: 0800 m
Brudte skyer i en højde af 200 ft
let finregn
ændring
fra 02 på 11 UTC til 02 på 13 UTC
Sigt: 6000 m
Brudte skyer i en højde af 1500 ft

TAF: EDAH 020800Z 0209/0218 13010KT 2000 BR SCT002 OVC007 TEMPO 0209/0211 0800 -DZ BKN002 BECMG 0211/0213 6000 BKN015

Vejrobservationer og prognoser fra mere end 4000 lufthavne (METAR og TAF).

De gule og røde prikker repræsenterer de meteorologiske stationer.

Flyt musen over at se navnet på stationen.

Så klik over at se vejr observationer og prognoser.

At skifte det kort: Klik på de grønne knapper med et sort kors for at zoome ind; på den grønne knap med en bindestreg for at zoome ud; eller på de grønne pile for tilstødende kort.


METAR-TAF: